ROT3MJ LRCL-LROP
Flight info
| Callsign | ROT3MJ |
|---|---|
| Flight time | 0h 37m |
| Altitude | 33000 |
| Route | IRLOX DCT BIVBU DCT TOSVI |
| Aircraft | B738/M-SDE2E3FGHIRWXY/LB1 |
Departure
| Time | 2026-04-22 17:59 |
|---|---|
| Airport | Avram Iancu Cluj International Airport (LRCL) |
Arrival
| Time | 2026-04-22 18:37 |
|---|---|
| Airport | Bucharest Henri Coandă International Airport (LROP) |
| Time | Latitude | Longitude | Altitude | Speed | Heading |
|---|---|---|---|---|---|
| 2026-04-22 17:29 | 46.78722 | 23.69373 | 1034 ft | 0 kts | 70° |
| 2026-04-22 17:53 | 46.78717 | 23.69352 | 1034 ft | 4 kts | 70° |
| 2026-04-22 17:53 | 46.78708 | 23.69315 | 1035 ft | 4 kts | 70° |
| 2026-04-22 17:53 | 46.78699 | 23.69282 | 1035 ft | 2 kts | 59° |
| 2026-04-22 17:53 | 46.78691 | 23.69269 | 1035 ft | 2 kts | 359° |
| 2026-04-22 17:54 | 46.78681 | 23.69273 | 1035 ft | 0 kts | 340° |
| 2026-04-22 17:55 | 46.78695 | 23.69265 | 1035 ft | 5 kts | 340° |
| 2026-04-22 17:55 | 46.78745 | 23.69239 | 1035 ft | 10 kts | 340° |
| 2026-04-22 17:56 | 46.78782 | 23.69220 | 1035 ft | 0 kts | 341° |
| 2026-04-22 17:56 | 46.78804 | 23.69208 | 1035 ft | 11 kts | 341° |
| 2026-04-22 17:57 | 46.78918 | 23.69197 | 1035 ft | 16 kts | 39° |
| 2026-04-22 17:57 | 46.78957 | 23.69346 | 1034 ft | 16 kts | 71° |
| 2026-04-22 17:57 | 46.79013 | 23.69596 | 1032 ft | 26 kts | 72° |
| 2026-04-22 17:57 | 46.79036 | 23.69730 | 1031 ft | 0 kts | 30° |
| 2026-04-22 17:58 | 46.79050 | 23.69730 | 1031 ft | 0 kts | 346° |
| 2026-04-22 17:58 | 46.79054 | 23.69714 | 1032 ft | 2 kts | 272° |
| 2026-04-22 17:58 | 46.79014 | 23.69588 | 1032 ft | 15 kts | 252° |
| 2026-04-22 17:58 | 46.78999 | 23.69537 | 1033 ft | 0 kts | 252° |
| 2026-04-22 17:59 | 46.78965 | 23.69388 | 1033 ft | 48 kts | 251° |
| 2026-04-22 17:59 | 46.78779 | 23.68566 | 1038 ft | 120 kts | 251° |
| 2026-04-22 17:59 | 46.78459 | 23.67127 | 1143 ft | 168 kts | 253° |
| 2026-04-22 17:59 | 46.78115 | 23.65526 | 1988 ft | 164 kts | 253° |
| 2026-04-22 18:00 | 46.77878 | 23.64459 | 2554 ft | 171 kts | 254° |
| 2026-04-22 18:00 | 46.77348 | 23.62130 | 3377 ft | 196 kts | 253° |
| 2026-04-22 18:00 | 46.76893 | 23.60186 | 3789 ft | 215 kts | 254° |
| 2026-04-22 18:00 | 46.76393 | 23.57971 | 4064 ft | 236 kts | 255° |
| 2026-04-22 18:01 | 46.75874 | 23.55660 | 4455 ft | 254 kts | 254° |
| 2026-04-22 18:01 | 46.75303 | 23.53145 | 5061 ft | 267 kts | 254° |
| 2026-04-22 18:01 | 46.74714 | 23.50569 | 5988 ft | 268 kts | 254° |
| 2026-04-22 18:01 | 46.74120 | 23.47979 | 6861 ft | 271 kts | 256° |
| 2026-04-22 18:02 | 46.73943 | 23.45277 | 7628 ft | 269 kts | 283° |
| 2026-04-22 18:02 | 46.74659 | 23.42814 | 8475 ft | 265 kts | 310° |
| 2026-04-22 18:02 | 46.76060 | 23.41102 | 9325 ft | 265 kts | 334° |
| 2026-04-22 18:02 | 46.77779 | 23.40123 | 10132 ft | 266 kts | 342° |
| 2026-04-22 18:03 | 46.79600 | 23.39579 | 10844 ft | 271 kts | 1° |
| 2026-04-22 18:03 | 46.81429 | 23.40229 | 11623 ft | 275 kts | 25° |
| 2026-04-22 18:03 | 46.82993 | 23.41976 | 12009 ft | 299 kts | 48° |
| 2026-04-22 18:03 | 46.84011 | 23.44775 | 12225 ft | 326 kts | 67° |
| 2026-04-22 18:04 | 46.84757 | 23.48025 | 12479 ft | 347 kts | 70° |
| 2026-04-22 18:04 | 46.85481 | 23.51444 | 13081 ft | 356 kts | 70° |
| 2026-04-22 18:04 | 46.86229 | 23.54912 | 13868 ft | 360 kts | 70° |
| 2026-04-22 18:04 | 46.87005 | 23.58404 | 14616 ft | 362 kts | 69° |
| 2026-04-22 18:05 | 46.87528 | 23.60729 | 15125 ft | 364 kts | 69° |
| 2026-04-22 18:05 | 46.88147 | 23.65616 | 16101 ft | 375 kts | 91° |
| 2026-04-22 18:05 | 46.87548 | 23.69343 | 16882 ft | 382 kts | 112° |
| 2026-04-22 18:05 | 46.86100 | 23.72567 | 17636 ft | 390 kts | 132° |
| 2026-04-22 18:06 | 46.84064 | 23.74933 | 18346 ft | 395 kts | 144° |
| 2026-04-22 18:06 | 46.81839 | 23.77059 | 18942 ft | 399 kts | 145° |
| 2026-04-22 18:06 | 46.79496 | 23.79283 | 19538 ft | 403 kts | 145° |
| 2026-04-22 18:06 | 46.77144 | 23.81553 | 20148 ft | 406 kts | 144° |
| 2026-04-22 18:07 | 46.75586 | 23.83076 | 20560 ft | 408 kts | 144° |
| 2026-04-22 18:07 | 46.72420 | 23.86189 | 21366 ft | 413 kts | 144° |
| 2026-04-22 18:07 | 46.70030 | 23.88541 | 21939 ft | 416 kts | 144° |
| 2026-04-22 18:07 | 46.67613 | 23.90916 | 22506 ft | 420 kts | 144° |
| 2026-04-22 18:08 | 46.65182 | 23.93300 | 23071 ft | 423 kts | 144° |
| 2026-04-22 18:08 | 46.62731 | 23.95699 | 23619 ft | 426 kts | 145° |
| 2026-04-22 18:08 | 46.60139 | 23.97708 | 24035 ft | 432 kts | 161° |
| 2026-04-22 18:08 | 46.57190 | 23.98631 | 24500 ft | 435 kts | 168° |
| 2026-04-22 18:09 | 46.54296 | 23.99916 | 24921 ft | 436 kts | 155° |
| 2026-04-22 18:09 | 46.51534 | 24.01774 | 25347 ft | 439 kts | 153° |
| 2026-04-22 18:09 | 46.48768 | 24.03715 | 25724 ft | 443 kts | 153° |
| 2026-04-22 18:09 | 46.45987 | 24.05668 | 26126 ft | 446 kts | 153° |
| 2026-04-22 18:10 | 46.43179 | 24.07615 | 26521 ft | 448 kts | 153° |
| 2026-04-22 18:10 | 46.40353 | 24.09547 | 26904 ft | 451 kts | 153° |
| 2026-04-22 18:10 | 46.37494 | 24.11478 | 27285 ft | 454 kts | 153° |
| 2026-04-22 18:10 | 46.34616 | 24.13404 | 27660 ft | 457 kts | 154° |
| 2026-04-22 18:11 | 46.31723 | 24.15332 | 28015 ft | 460 kts | 154° |
| 2026-04-22 18:11 | 46.28809 | 24.17267 | 28411 ft | 461 kts | 154° |
| 2026-04-22 18:11 | 46.25895 | 24.19198 | 28951 ft | 459 kts | 154° |
| 2026-04-22 18:11 | 46.22980 | 24.21129 | 29079 ft | 462 kts | 154° |
| 2026-04-22 18:12 | 46.20059 | 24.23062 | 29091 ft | 460 kts | 154° |
| 2026-04-22 18:12 | 46.15239 | 24.26248 | 29094 ft | 458 kts | 154° |
| 2026-04-22 18:13 | 46.08501 | 24.30693 | 29099 ft | 458 kts | 154° |
| 2026-04-22 18:13 | 46.02700 | 24.34512 | 29102 ft | 459 kts | 154° |
| 2026-04-22 18:14 | 45.96854 | 24.38350 | 29101 ft | 459 kts | 154° |
| 2026-04-22 18:14 | 45.91074 | 24.42136 | 29098 ft | 459 kts | 154° |
| 2026-04-22 18:15 | 45.85255 | 24.45939 | 29096 ft | 460 kts | 154° |
| 2026-04-22 18:15 | 45.79431 | 24.49736 | 29101 ft | 459 kts | 154° |
| 2026-04-22 18:16 | 45.73615 | 24.53520 | 29108 ft | 459 kts | 154° |
| 2026-04-22 18:16 | 45.67795 | 24.57297 | 29118 ft | 459 kts | 154° |
| 2026-04-22 18:17 | 45.61974 | 24.61067 | 29120 ft | 459 kts | 155° |
| 2026-04-22 18:17 | 45.56153 | 24.64827 | 29113 ft | 459 kts | 155° |
| 2026-04-22 18:18 | 45.50340 | 24.68574 | 29116 ft | 458 kts | 155° |
| 2026-04-22 18:18 | 45.47419 | 24.70454 | 28525 ft | 465 kts | 155° |
| 2026-04-22 18:18 | 45.44486 | 24.72340 | 27922 ft | 458 kts | 155° |
| 2026-04-22 18:18 | 45.41593 | 24.74196 | 27307 ft | 452 kts | 155° |
| 2026-04-22 18:19 | 45.38746 | 24.76021 | 26750 ft | 445 kts | 155° |
| 2026-04-22 18:19 | 45.35924 | 24.77829 | 25913 ft | 445 kts | 155° |
| 2026-04-22 18:19 | 45.33130 | 24.79617 | 25122 ft | 445 kts | 155° |
| 2026-04-22 18:19 | 45.30311 | 24.81418 | 24350 ft | 444 kts | 155° |
| 2026-04-22 18:20 | 45.27496 | 24.83215 | 23555 ft | 443 kts | 155° |
| 2026-04-22 18:20 | 45.24686 | 24.85006 | 22662 ft | 441 kts | 156° |
| 2026-04-22 18:20 | 45.21891 | 24.86786 | 21790 ft | 440 kts | 156° |
| 2026-04-22 18:20 | 45.19127 | 24.88545 | 20936 ft | 431 kts | 156° |
| 2026-04-22 18:21 | 45.17320 | 24.89694 | 20381 ft | 427 kts | 156° |
| 2026-04-22 18:21 | 45.14625 | 24.91407 | 19582 ft | 425 kts | 156° |
| 2026-04-22 18:21 | 45.11931 | 24.93116 | 18772 ft | 420 kts | 156° |
| 2026-04-22 18:21 | 45.09290 | 24.94791 | 17937 ft | 411 kts | 157° |
| 2026-04-22 18:22 | 45.06701 | 24.96432 | 17060 ft | 404 kts | 157° |
| 2026-04-22 18:22 | 45.04129 | 24.98059 | 16220 ft | 405 kts | 157° |
| 2026-04-22 18:22 | 45.01588 | 24.99664 | 15831 ft | 395 kts | 157° |
| 2026-04-22 18:22 | 44.99099 | 25.01237 | 15321 ft | 389 kts | 157° |
| 2026-04-22 18:23 | 44.96642 | 25.02787 | 14795 ft | 385 kts | 157° |
| 2026-04-22 18:23 | 44.94206 | 25.04322 | 14265 ft | 380 kts | 157° |
| 2026-04-22 18:23 | 44.91828 | 25.05820 | 13740 ft | 377 kts | 157° |
| 2026-04-22 18:24 | 44.87091 | 25.08798 | 12640 ft | 369 kts | 156° |
| 2026-04-22 18:24 | 44.84765 | 25.10258 | 12121 ft | 364 kts | 156° |
| 2026-04-22 18:24 | 44.80184 | 25.13132 | 11350 ft | 350 kts | 156° |
| 2026-04-22 18:25 | 44.78036 | 25.14601 | 11205 ft | 337 kts | 146° |
| 2026-04-22 18:25 | 44.76395 | 25.16845 | 11117 ft | 324 kts | 126° |
| 2026-04-22 18:25 | 44.75276 | 25.19553 | 10731 ft | 320 kts | 114° |
| 2026-04-22 18:26 | 44.73481 | 25.25323 | 9726 ft | 323 kts | 112° |
| 2026-04-22 18:26 | 44.72609 | 25.28201 | 9348 ft | 313 kts | 112° |
| 2026-04-22 18:26 | 44.71768 | 25.30951 | 9023 ft | 299 kts | 112° |
| 2026-04-22 18:26 | 44.70959 | 25.33572 | 8752 ft | 286 kts | 112° |
| 2026-04-22 18:27 | 44.70178 | 25.36087 | 8458 ft | 278 kts | 112° |
| 2026-04-22 18:27 | 44.69405 | 25.38564 | 8170 ft | 275 kts | 111° |
| 2026-04-22 18:27 | 44.68635 | 25.41024 | 7881 ft | 273 kts | 111° |
| 2026-04-22 18:27 | 44.67873 | 25.43454 | 7597 ft | 271 kts | 111° |
| 2026-04-22 18:28 | 44.67114 | 25.45866 | 7316 ft | 269 kts | 111° |
| 2026-04-22 18:28 | 44.66357 | 25.48266 | 7028 ft | 267 kts | 111° |
| 2026-04-22 18:28 | 44.65616 | 25.50616 | 6753 ft | 265 kts | 111° |
| 2026-04-22 18:28 | 44.64870 | 25.52975 | 6476 ft | 263 kts | 111° |
| 2026-04-22 18:29 | 44.64130 | 25.55317 | 6186 ft | 262 kts | 111° |
| 2026-04-22 18:29 | 44.63395 | 25.57638 | 5888 ft | 260 kts | 111° |
| 2026-04-22 18:29 | 44.62664 | 25.59945 | 5607 ft | 257 kts | 111° |
| 2026-04-22 18:29 | 44.61938 | 25.62234 | 5353 ft | 255 kts | 111° |
| 2026-04-22 18:30 | 44.61216 | 25.64506 | 5094 ft | 253 kts | 111° |
| 2026-04-22 18:30 | 44.60234 | 25.67595 | 4803 ft | 247 kts | 111° |
| 2026-04-22 18:30 | 44.59577 | 25.69656 | 4684 ft | 242 kts | 111° |
| 2026-04-22 18:31 | 44.58895 | 25.71800 | 4510 ft | 237 kts | 111° |
| 2026-04-22 18:31 | 44.58212 | 25.73948 | 3914 ft | 246 kts | 112° |
| 2026-04-22 18:31 | 44.57511 | 25.76146 | 3406 ft | 247 kts | 113° |
| 2026-04-22 18:31 | 44.56808 | 25.78348 | 2892 ft | 248 kts | 113° |
| 2026-04-22 18:32 | 44.56107 | 25.80541 | 2567 ft | 241 kts | 113° |
| 2026-04-22 18:32 | 44.55578 | 25.82694 | 2484 ft | 231 kts | 92° |
| 2026-04-22 18:32 | 44.55832 | 25.84848 | 2493 ft | 217 kts | 76° |
| 2026-04-22 18:32 | 44.56069 | 25.86851 | 2473 ft | 200 kts | 83° |
| 2026-04-22 18:33 | 44.56205 | 25.88705 | 2462 ft | 185 kts | 84° |
| 2026-04-22 18:33 | 44.56329 | 25.90447 | 2482 ft | 179 kts | 83° |
| 2026-04-22 18:33 | 44.56455 | 25.92180 | 2514 ft | 180 kts | 83° |
| 2026-04-22 18:33 | 44.56585 | 25.93945 | 2421 ft | 185 kts | 83° |
| 2026-04-22 18:34 | 44.56717 | 25.95728 | 2187 ft | 179 kts | 83° |
| 2026-04-22 18:34 | 44.56840 | 25.97387 | 1950 ft | 163 kts | 83° |
| 2026-04-22 18:34 | 44.56952 | 25.98903 | 1715 ft | 151 kts | 83° |
| 2026-04-22 18:34 | 44.57058 | 26.00317 | 1553 ft | 142 kts | 83° |
| 2026-04-22 18:35 | 44.57158 | 26.01655 | 1363 ft | 137 kts | 83° |
| 2026-04-22 18:35 | 44.57263 | 26.02990 | 1132 ft | 137 kts | 83° |
| 2026-04-22 18:35 | 44.57345 | 26.04330 | 945 ft | 139 kts | 82° |
| 2026-04-22 18:35 | 44.57460 | 26.05666 | 761 ft | 138 kts | 81° |
| 2026-04-22 18:36 | 44.57560 | 26.06991 | 562 ft | 134 kts | 81° |
| 2026-04-22 18:36 | 44.57652 | 26.08258 | 395 ft | 128 kts | 83° |
| 2026-04-22 18:36 | 44.57736 | 26.09431 | 319 ft | 109 kts | 83° |
| 2026-04-22 18:36 | 44.57806 | 26.10300 | 323 ft | 68 kts | 84° |
| 2026-04-22 18:37 | 44.57834 | 26.10820 | 319 ft | 47 kts | 95° |
| 2026-04-22 18:37 | 44.57754 | 26.11144 | 319 ft | 18 kts | 131° |
| 2026-04-22 18:37 | 44.57700 | 26.11135 | 319 ft | 7 kts | 238° |
| 2026-04-22 18:37 | 44.57689 | 26.11067 | 320 ft | 7 kts | 264° |
| 2026-04-22 18:38 | 44.57684 | 26.10999 | 320 ft | 7 kts | 264° |
| 2026-04-22 18:38 | 44.57679 | 26.10929 | 320 ft | 8 kts | 264° |
| 2026-04-22 18:38 | 44.57673 | 26.10848 | 320 ft | 9 kts | 264° |
| 2026-04-22 18:39 | 44.57656 | 26.10630 | 320 ft | 14 kts | 264° |
| 2026-04-22 18:39 | 44.57645 | 26.10481 | 320 ft | 17 kts | 264° |
| 2026-04-22 18:39 | 44.57632 | 26.10306 | 320 ft | 19 kts | 264° |
| 2026-04-22 18:39 | 44.57619 | 26.10124 | 320 ft | 18 kts | 264° |
| 2026-04-22 18:40 | 44.57605 | 26.09947 | 320 ft | 18 kts | 264° |
| 2026-04-22 18:40 | 44.57592 | 26.09777 | 320 ft | 17 kts | 264° |
| 2026-04-22 18:40 | 44.57580 | 26.09612 | 320 ft | 17 kts | 264° |
| 2026-04-22 18:40 | 44.57568 | 26.09454 | 318 ft | 16 kts | 263° |
| 2026-04-22 18:41 | 44.57556 | 26.09302 | 320 ft | 15 kts | 263° |
| 2026-04-22 18:41 | 44.57545 | 26.09156 | 320 ft | 15 kts | 264° |
| 2026-04-22 18:41 | 44.57534 | 26.09016 | 320 ft | 14 kts | 264° |
| 2026-04-22 18:41 | 44.57524 | 26.08882 | 318 ft | 13 kts | 264° |
| 2026-04-22 18:42 | 44.57515 | 26.08754 | 320 ft | 13 kts | 264° |
| 2026-04-22 18:42 | 44.57507 | 26.08630 | 320 ft | 13 kts | 264° |
| 2026-04-22 18:42 | 44.57489 | 26.08512 | 319 ft | 12 kts | 237° |
| 2026-04-22 18:42 | 44.57412 | 26.08478 | 319 ft | 12 kts | 176° |
| 2026-04-22 18:43 | 44.57334 | 26.08491 | 320 ft | 12 kts | 173° |
| 2026-04-22 18:43 | 44.57252 | 26.08502 | 320 ft | 12 kts | 175° |
| 2026-04-22 18:43 | 44.57173 | 26.08512 | 318 ft | 11 kts | 174° |
| 2026-04-22 18:43 | 44.57096 | 26.08524 | 320 ft | 11 kts | 173° |
| 2026-04-22 18:44 | 44.57021 | 26.08537 | 320 ft | 11 kts | 173° |
| 2026-04-22 18:44 | 44.56948 | 26.08545 | 320 ft | 10 kts | 179° |
| 2026-04-22 18:44 | 44.56900 | 26.08485 | 320 ft | 10 kts | 259° |
| 2026-04-22 18:44 | 44.56925 | 26.08398 | 320 ft | 10 kts | 313° |
| 2026-04-22 18:45 | 44.56952 | 26.08312 | 320 ft | 10 kts | 268° |
| 2026-04-22 18:45 | 44.56945 | 26.08216 | 320 ft | 10 kts | 264° |
| 2026-04-22 18:45 | 44.56939 | 26.08119 | 320 ft | 10 kts | 264° |
| 2026-04-22 18:45 | 44.56940 | 26.08041 | 320 ft | 7 kts | 308° |
| 2026-04-22 18:46 | 44.56987 | 26.08029 | 320 ft | 7 kts | 355° |
| 2026-04-22 18:46 | 44.57016 | 26.08025 | 319 ft | 0 kts | 354° |
| 2026-04-22 18:46 | 44.57017 | 26.08025 | 319 ft | 0 kts | 354° |